Pagrindinis puslapis
METAR-TAF:

METAR-TAF

Oro uostai :

Zaporožė, Ukraina

platuma: 47-52-02N, ilguma: 035-18-59E, Aukštis: 114 m

Dabartinis oras

Ataskaita buvo paskelbta 1 valandą ir 4 minutes, ne 21:00 UTC
Ramus vėjas
Temperatūra 2°C
Drėgmė 100%
Slėgis 1020 hPa
Matomumas: 0100 m
rūkas

METAR: UKDE 102100Z 00000MPS 0100 FG VV001 02/02 Q1020 R20L/290558 NOSIG

Laikas: 00:04 (22:04 UTC)

Prognozė

Ataskaita buvo paskelbta 1 valandą ir 57 minutes, ne 20:07 UTC
Prognozė galioja nuo 10 metu 21 UTC su 11 metu 06 UTC
Vėjas 6 kt iš Rytų
Matomumas: 0100 m
ne aukštis 100 ft
rūkas

TAF: UKDE 102007Z 1021/1106 09003MPS 0100 FG VV001 TX02/1106Z TN01/1103Z

Orai ataskaitas ir orų prognozės (METAR, TAF).

turimą stotys yra geltonos ir raudonos taškus žemėlapyje.

Perkelti pele per norėdami pamatyti stoties vardą.

Tada spustelėkite, norėdami matyti oro stebėjimo ir prognozės.

Norėdami pakeisti žemėlapį: spustelėkite ant žalios mygtukų su juodo kryžiaus žemyn,; žalią mygtuką su brūkšneliu, jei norite nutolinti; arba žalių rodyklių gretimoms žemėlapius.


METAR-TAF: